sensor_id;sensor_type;location;lat;lon;timestamp;P1;durP1;ratioP1;P2;durP2;ratioP2
41755;SDS011;27435;48.480;9.258;2023-08-06T00:01:49;9.40;;;3.75;;
41755;SDS011;27435;48.480;9.258;2023-08-06T00:04:14;7.75;;;3.55;;
41755;SDS011;27435;48.480;9.258;2023-08-06T00:06:40;5.10;;;3.30;;
41755;SDS011;27435;48.480;9.258;2023-08-06T00:09:06;6.00;;;3.28;;
41755;SDS011;27435;48.480;9.258;2023-08-06T00:11:32;5.75;;;3.28;;
41755;SDS011;27435;48.480;9.258;2023-08-06T00:13:57;5.35;;;3.35;;
41755;SDS011;27435;48.480;9.258;2023-08-06T00:16:23;4.68;;;3.38;;
41755;SDS011;27435;48.480;9.258;2023-08-06T00:18:48;6.22;;;3.83;;
41755;SDS011;27435;48.480;9.258;2023-08-06T00:21:14;6.68;;;3.70;;
41755;SDS011;27435;48.480;9.258;2023-08-06T00:23:40;6.13;;;3.47;;
41755;SDS011;27435;48.480;9.258;2023-08-06T00:26:06;6.25;;;3.83;;
41755;SDS011;27435;48.480;9.258;2023-08-06T00:28:32;6.30;;;3.45;;
41755;SDS011;27435;48.480;9.258;2023-08-06T00:30:58;5.10;;;3.92;;
41755;SDS011;27435;48.480;9.258;2023-08-06T00:33:24;5.95;;;4.38;;
41755;SDS011;27435;48.480;9.258;2023-08-06T00:35:49;5.22;;;3.83;;
41755;SDS011;27435;48.480;9.258;2023-08-06T00:38:15;7.90;;;4.40;;
41755;SDS011;27435;48.480;9.258;2023-08-06T00:40:40;5.70;;;4.20;;
41755;SDS011;27435;48.480;9.258;2023-08-06T00:43:06;6.83;;;3.80;;
41755;SDS011;27435;48.480;9.258;2023-08-06T00:45:36;9.87;;;4.17;;
41755;SDS011;27435;48.480;9.258;2023-08-06T00:48:02;6.10;;;3.27;;
41755;SDS011;27435;48.480;9.258;2023-08-06T00:50:30;11.60;;;4.53;;
41755;SDS011;27435;48.480;9.258;2023-08-06T00:52:56;5.10;;;3.55;;
41755;SDS011;27435;48.480;9.258;2023-08-06T00:55:22;7.80;;;3.57;;
41755;SDS011;27435;48.480;9.258;2023-08-06T00:57:48;5.63;;;3.13;;
41755;SDS011;27435;48.480;9.258;2023-08-06T01:00:15;6.00;;;2.43;;
41755;SDS011;27435;48.480;9.258;2023-08-06T01:02:41;4.03;;;2.60;;
41755;SDS011;27435;48.480;9.258;2023-08-06T01:05:06;4.50;;;2.87;;
41755;SDS011;27435;48.480;9.258;2023-08-06T01:10:10;5.37;;;2.30;;
41755;SDS011;27435;48.480;9.258;2023-08-06T01:13:04;3.73;;;2.27;;
41755;SDS011;27435;48.480;9.258;2023-08-06T01:15:41;4.17;;;2.00;;
41755;SDS011;27435;48.480;9.258;2023-08-06T01:18:10;4.63;;;1.50;;
41755;SDS011;27435;48.480;9.258;2023-08-06T01:20:36;2.87;;;1.73;;
41755;SDS011;27435;48.480;9.258;2023-08-06T01:23:01;4.43;;;2.23;;
41755;SDS011;27435;48.480;9.258;2023-08-06T01:25:29;5.57;;;1.87;;
41755;SDS011;27435;48.480;9.258;2023-08-06T01:28:06;4.60;;;1.80;;
41755;SDS011;27435;48.480;9.258;2023-08-06T01:30:41;3.50;;;1.70;;
41755;SDS011;27435;48.480;9.258;2023-08-06T01:33:07;4.03;;;1.70;;
41755;SDS011;27435;48.480;9.258;2023-08-06T01:35:35;3.87;;;1.90;;
41755;SDS011;27435;48.480;9.258;2023-08-06T01:38:02;4.28;;;2.35;;
41755;SDS011;27435;48.480;9.258;2023-08-06T01:40:28;4.63;;;1.87;;
41755;SDS011;27435;48.480;9.258;2023-08-06T01:42:54;4.87;;;2.07;;
41755;SDS011;27435;48.480;9.258;2023-08-06T01:45:20;5.07;;;2.10;;
41755;SDS011;27435;48.480;9.258;2023-08-06T01:47:45;5.72;;;2.42;;
41755;SDS011;27435;48.480;9.258;2023-08-06T01:50:11;7.53;;;1.97;;
41755;SDS011;27435;48.480;9.258;2023-08-06T01:52:37;3.60;;;1.60;;
41755;SDS011;27435;48.480;9.258;2023-08-06T01:55:03;3.40;;;1.70;;
41755;SDS011;27435;48.480;9.258;2023-08-06T01:57:29;4.27;;;1.83;;
41755;SDS011;27435;48.480;9.258;2023-08-06T01:59:54;4.20;;;1.83;;
41755;SDS011;27435;48.480;9.258;2023-08-06T02:02:20;5.17;;;1.93;;
41755;SDS011;27435;48.480;9.258;2023-08-06T02:04:45;3.23;;;1.70;;
41755;SDS011;27435;48.480;9.258;2023-08-06T02:07:11;3.97;;;1.70;;
41755;SDS011;27435;48.480;9.258;2023-08-06T02:09:37;4.07;;;1.70;;
41755;SDS011;27435;48.480;9.258;2023-08-06T02:12:02;3.77;;;2.00;;
41755;SDS011;27435;48.480;9.258;2023-08-06T02:14:28;5.57;;;2.13;;
41755;SDS011;27435;48.480;9.258;2023-08-06T02:16:54;4.83;;;1.80;;
41755;SDS011;27435;48.480;9.258;2023-08-06T02:19:19;5.97;;;1.90;;
41755;SDS011;27435;48.480;9.258;2023-08-06T02:21:45;4.30;;;1.80;;
41755;SDS011;27435;48.480;9.258;2023-08-06T02:24:10;4.50;;;1.43;;
41755;SDS011;27435;48.480;9.258;2023-08-06T02:26:36;6.50;;;1.60;;
41755;SDS011;27435;48.480;9.258;2023-08-06T02:29:02;4.80;;;1.80;;
41755;SDS011;27435;48.480;9.258;2023-08-06T02:31:27;4.80;;;1.93;;
41755;SDS011;27435;48.480;9.258;2023-08-06T02:33:53;6.73;;;2.07;;
41755;SDS011;27435;48.480;9.258;2023-08-06T02:36:19;3.93;;;1.60;;
41755;SDS011;27435;48.480;9.258;2023-08-06T02:38:44;6.37;;;1.70;;
41755;SDS011;27435;48.480;9.258;2023-08-06T02:41:10;4.17;;;1.70;;
41755;SDS011;27435;48.480;9.258;2023-08-06T02:43:35;5.00;;;1.50;;
41755;SDS011;27435;48.480;9.258;2023-08-06T02:46:01;5.90;;;1.43;;
41755;SDS011;27435;48.480;9.258;2023-08-06T02:48:27;2.70;;;1.50;;
41755;SDS011;27435;48.480;9.258;2023-08-06T02:50:52;4.20;;;1.50;;
41755;SDS011;27435;48.480;9.258;2023-08-06T02:53:21;3.40;;;1.30;;
41755;SDS011;27435;48.480;9.258;2023-08-06T02:55:47;4.27;;;1.60;;
41755;SDS011;27435;48.480;9.258;2023-08-06T02:58:13;3.97;;;1.57;;
41755;SDS011;27435;48.480;9.258;2023-08-06T03:01:03;5.27;;;1.50;;
41755;SDS011;27435;48.480;9.258;2023-08-06T03:03:30;5.87;;;1.10;;
41755;SDS011;27435;48.480;9.258;2023-08-06T03:05:56;2.97;;;1.40;;
41755;SDS011;27435;48.480;9.258;2023-08-06T03:08:22;4.03;;;1.27;;
41755;SDS011;27435;48.480;9.258;2023-08-06T03:10:49;4.10;;;1.20;;
41755;SDS011;27435;48.480;9.258;2023-08-06T03:13:16;3.38;;;1.20;;
41755;SDS011;27435;48.480;9.258;2023-08-06T03:15:41;2.67;;;1.60;;
41755;SDS011;27435;48.480;9.258;2023-08-06T03:18:07;3.07;;;1.33;;
41755;SDS011;27435;48.480;9.258;2023-08-06T03:20:33;2.27;;;1.03;;
41755;SDS011;27435;48.480;9.258;2023-08-06T03:22:59;5.30;;;1.60;;
41755;SDS011;27435;48.480;9.258;2023-08-06T03:25:25;5.73;;;1.13;;
41755;SDS011;27435;48.480;9.258;2023-08-06T03:27:50;2.38;;;1.00;;
41755;SDS011;27435;48.480;9.258;2023-08-06T03:30:16;3.92;;;1.20;;
41755;SDS011;27435;48.480;9.258;2023-08-06T03:32:41;4.20;;;1.17;;
41755;SDS011;27435;48.480;9.258;2023-08-06T03:35:07;5.90;;;1.10;;
41755;SDS011;27435;48.480;9.258;2023-08-06T03:37:33;3.42;;;1.10;;
41755;SDS011;27435;48.480;9.258;2023-08-06T03:39:58;4.10;;;1.23;;
41755;SDS011;27435;48.480;9.258;2023-08-06T03:42:24;5.65;;;1.10;;
41755;SDS011;27435;48.480;9.258;2023-08-06T03:44:49;3.72;;;1.35;;
41755;SDS011;27435;48.480;9.258;2023-08-06T03:47:15;3.15;;;1.05;;
41755;SDS011;27435;48.480;9.258;2023-08-06T03:49:41;3.92;;;0.93;;
41755;SDS011;27435;48.480;9.258;2023-08-06T03:52:06;3.75;;;1.00;;
41755;SDS011;27435;48.480;9.258;2023-08-06T03:54:32;3.75;;;1.00;;
41755;SDS011;27435;48.480;9.258;2023-08-06T03:56:58;4.30;;;1.30;;
41755;SDS011;27435;48.480;9.258;2023-08-06T03:59:23;6.63;;;2.03;;
41755;SDS011;27435;48.480;9.258;2023-08-06T04:01:49;4.10;;;1.52;;
41755;SDS011;27435;48.480;9.258;2023-08-06T04:04:14;3.30;;;1.13;;
41755;SDS011;27435;48.480;9.258;2023-08-06T04:06:40;3.75;;;0.82;;
41755;SDS011;27435;48.480;9.258;2023-08-06T04:09:06;2.47;;;1.27;;
41755;SDS011;27435;48.480;9.258;2023-08-06T04:11:31;3.05;;;0.98;;
41755;SDS011;27435;48.480;9.258;2023-08-06T04:13:57;2.38;;;1.05;;
41755;SDS011;27435;48.480;9.258;2023-08-06T04:16:22;6.00;;;0.80;;
41755;SDS011;27435;48.480;9.258;2023-08-06T04:18:48;4.18;;;1.20;;
41755;SDS011;27435;48.480;9.258;2023-08-06T04:21:13;5.85;;;1.20;;
41755;SDS011;27435;48.480;9.258;2023-08-06T04:23:39;3.13;;;0.93;;
41755;SDS011;27435;48.480;9.258;2023-08-06T04:26:05;3.03;;;1.23;;
41755;SDS011;27435;48.480;9.258;2023-08-06T04:28:30;3.47;;;1.20;;
41755;SDS011;27435;48.480;9.258;2023-08-06T04:30:56;4.07;;;0.83;;
41755;SDS011;27435;48.480;9.258;2023-08-06T04:33:21;3.27;;;1.30;;
41755;SDS011;27435;48.480;9.258;2023-08-06T04:35:47;3.83;;;1.20;;
41755;SDS011;27435;48.480;9.258;2023-08-06T04:38:18;4.35;;;1.23;;
41755;SDS011;27435;48.480;9.258;2023-08-06T04:40:44;4.63;;;1.33;;
41755;SDS011;27435;48.480;9.258;2023-08-06T04:43:09;4.10;;;1.10;;
41755;SDS011;27435;48.480;9.258;2023-08-06T04:45:35;2.87;;;1.00;;
41755;SDS011;27435;48.480;9.258;2023-08-06T04:48:00;3.00;;;0.73;;
41755;SDS011;27435;48.480;9.258;2023-08-06T04:50:26;1.80;;;0.70;;
41755;SDS011;27435;48.480;9.258;2023-08-06T04:52:51;1.83;;;0.77;;
41755;SDS011;27435;48.480;9.258;2023-08-06T04:55:17;2.97;;;0.93;;
41755;SDS011;27435;48.480;9.258;2023-08-06T04:57:43;3.43;;;0.80;;
41755;SDS011;27435;48.480;9.258;2023-08-06T05:00:08;3.23;;;1.10;;
41755;SDS011;27435;48.480;9.258;2023-08-06T05:02:34;1.73;;;0.80;;
41755;SDS011;27435;48.480;9.258;2023-08-06T05:05:03;2.10;;;0.73;;
41755;SDS011;27435;48.480;9.258;2023-08-06T05:07:28;2.10;;;0.70;;
41755;SDS011;27435;48.480;9.258;2023-08-06T05:09:54;5.53;;;0.80;;
41755;SDS011;27435;48.480;9.258;2023-08-06T05:12:19;4.47;;;0.80;;
41755;SDS011;27435;48.480;9.258;2023-08-06T05:14:45;3.53;;;0.60;;
41755;SDS011;27435;48.480;9.258;2023-08-06T05:17:11;3.97;;;0.70;;
41755;SDS011;27435;48.480;9.258;2023-08-06T05:19:36;2.03;;;0.70;;
41755;SDS011;27435;48.480;9.258;2023-08-06T05:22:02;1.87;;;1.30;;
41755;SDS011;27435;48.480;9.258;2023-08-06T05:24:27;2.45;;;0.90;;
41755;SDS011;27435;48.480;9.258;2023-08-06T05:26:53;3.27;;;0.43;;
41755;SDS011;27435;48.480;9.258;2023-08-06T05:29:19;5.57;;;0.60;;
41755;SDS011;27435;48.480;9.258;2023-08-06T05:31:44;3.00;;;0.60;;
41755;SDS011;27435;48.480;9.258;2023-08-06T05:34:10;4.40;;;0.60;;
41755;SDS011;27435;48.480;9.258;2023-08-06T05:36:35;2.17;;;0.50;;
41755;SDS011;27435;48.480;9.258;2023-08-06T05:39:01;2.75;;;1.13;;
41755;SDS011;27435;48.480;9.258;2023-08-06T05:41:26;2.97;;;1.23;;
41755;SDS011;27435;48.480;9.258;2023-08-06T05:43:52;1.35;;;0.73;;
41755;SDS011;27435;48.480;9.258;2023-08-06T05:46:18;4.65;;;0.70;;
41755;SDS011;27435;48.480;9.258;2023-08-06T05:48:43;3.67;;;0.40;;
41755;SDS011;27435;48.480;9.258;2023-08-06T05:51:09;1.55;;;0.50;;
41755;SDS011;27435;48.480;9.258;2023-08-06T05:53:37;2.78;;;0.55;;
41755;SDS011;27435;48.480;9.258;2023-08-06T05:56:03;2.17;;;0.65;;
41755;SDS011;27435;48.480;9.258;2023-08-06T05:58:29;0.22;;;0.20;;
41755;SDS011;27435;48.480;9.258;2023-08-06T06:00:55;0.57;;;0.25;;
41755;SDS011;27435;48.480;9.258;2023-08-06T06:03:21;1.27;;;0.40;;
41755;SDS011;27435;48.480;9.258;2023-08-06T06:05:47;3.60;;;0.50;;
41755;SDS011;27435;48.480;9.258;2023-08-06T06:08:12;1.55;;;0.40;;
41755;SDS011;27435;48.480;9.258;2023-08-06T06:10:38;3.25;;;0.40;;
41755;SDS011;27435;48.480;9.258;2023-08-06T06:13:03;2.78;;;0.47;;
41755;SDS011;27435;48.480;9.258;2023-08-06T06:15:29;2.72;;;0.32;;
41755;SDS011;27435;48.480;9.258;2023-08-06T06:17:54;0.98;;;0.30;;
41755;SDS011;27435;48.480;9.258;2023-08-06T06:20:20;1.30;;;0.38;;
41755;SDS011;27435;48.480;9.258;2023-08-06T06:22:46;0.50;;;0.20;;
41755;SDS011;27435;48.480;9.258;2023-08-06T06:25:11;2.67;;;0.50;;
41755;SDS011;27435;48.480;9.258;2023-08-06T06:27:37;0.88;;;0.45;;
41755;SDS011;27435;48.480;9.258;2023-08-06T06:30:02;1.05;;;0.40;;
41755;SDS011;27435;48.480;9.258;2023-08-06T06:32:29;2.72;;;0.47;;
41755;SDS011;27435;48.480;9.258;2023-08-06T06:34:54;1.10;;;0.47;;
41755;SDS011;27435;48.480;9.258;2023-08-06T06:37:20;1.75;;;0.45;;
41755;SDS011;27435;48.480;9.258;2023-08-06T06:39:46;2.78;;;0.47;;
41755;SDS011;27435;48.480;9.258;2023-08-06T06:42:11;0.95;;;0.28;;
41755;SDS011;27435;48.480;9.258;2023-08-06T06:44:37;1.30;;;0.40;;
41755;SDS011;27435;48.480;9.258;2023-08-06T06:47:02;0.77;;;0.35;;
41755;SDS011;27435;48.480;9.258;2023-08-06T06:49:28;1.30;;;0.40;;
41755;SDS011;27435;48.480;9.258;2023-08-06T06:51:54;2.72;;;0.45;;
41755;SDS011;27435;48.480;9.258;2023-08-06T06:54:19;1.30;;;0.45;;
41755;SDS011;27435;48.480;9.258;2023-08-06T06:56:45;0.85;;;0.20;;
41755;SDS011;27435;48.480;9.258;2023-08-06T06:59:11;0.45;;;0.20;;
41755;SDS011;27435;48.480;9.258;2023-08-06T07:01:36;1.35;;;0.35;;
41755;SDS011;27435;48.480;9.258;2023-08-06T07:04:02;0.28;;;0.10;;
41755;SDS011;27435;48.480;9.258;2023-08-06T07:06:30;1.52;;;0.22;;
41755;SDS011;27435;48.480;9.258;2023-08-06T07:08:56;1.55;;;0.38;;
41755;SDS011;27435;48.480;9.258;2023-08-06T07:11:21;1.70;;;0.22;;
41755;SDS011;27435;48.480;9.258;2023-08-06T07:13:49;0.35;;;0.17;;
41755;SDS011;27435;48.480;9.258;2023-08-06T07:16:21;0.30;;;0.20;;
41755;SDS011;27435;48.480;9.258;2023-08-06T07:18:46;0.35;;;0.20;;
41755;SDS011;27435;48.480;9.258;2023-08-06T07:21:12;1.30;;;0.25;;
41755;SDS011;27435;48.480;9.258;2023-08-06T07:23:37;0.20;;;0.10;;
41755;SDS011;27435;48.480;9.258;2023-08-06T07:26:03;0.30;;;0.20;;
41755;SDS011;27435;48.480;9.258;2023-08-06T07:28:29;0.90;;;0.30;;
41755;SDS011;27435;48.480;9.258;2023-08-06T07:30:54;3.55;;;0.80;;
41755;SDS011;27435;48.480;9.258;2023-08-06T07:33:20;0.80;;;0.20;;
41755;SDS011;27435;48.480;9.258;2023-08-06T07:35:48;1.65;;;0.15;;
41755;SDS011;27435;48.480;9.258;2023-08-06T07:38:14;4.13;;;0.40;;
41755;SDS011;27435;48.480;9.258;2023-08-06T07:40:40;0.20;;;0.10;;
41755;SDS011;27435;48.480;9.258;2023-08-06T07:43:05;0.68;;;0.20;;
41755;SDS011;27435;48.480;9.258;2023-08-06T07:45:34;0.20;;;0.20;;
41755;SDS011;27435;48.480;9.258;2023-08-06T07:48:00;0.38;;;0.10;;
41755;SDS011;27435;48.480;9.258;2023-08-06T07:50:26;0.43;;;0.10;;
41755;SDS011;27435;48.480;9.258;2023-08-06T07:52:52;0.30;;;0.10;;
41755;SDS011;27435;48.480;9.258;2023-08-06T07:55:17;1.95;;;0.13;;
41755;SDS011;27435;48.480;9.258;2023-08-06T07:57:43;0.25;;;0.10;;
41755;SDS011;27435;48.480;9.258;2023-08-06T08:00:09;0.90;;;0.20;;
41755;SDS011;27435;48.480;9.258;2023-08-06T08:02:35;1.45;;;0.20;;
41755;SDS011;27435;48.480;9.258;2023-08-06T08:05:00;0.20;;;0.20;;
41755;SDS011;27435;48.480;9.258;2023-08-06T08:07:26;0.10;;;0.10;;
41755;SDS011;27435;48.480;9.258;2023-08-06T08:09:54;0.90;;;0.28;;
41755;SDS011;27435;48.480;9.258;2023-08-06T08:12:19;0.20;;;0.10;;
41755;SDS011;27435;48.480;9.258;2023-08-06T08:14:45;1.08;;;0.10;;
41755;SDS011;27435;48.480;9.258;2023-08-06T08:17:10;1.90;;;0.10;;
41755;SDS011;27435;48.480;9.258;2023-08-06T08:19:37;0.55;;;0.30;;
41755;SDS011;27435;48.480;9.258;2023-08-06T08:22:02;0.40;;;0.10;;
41755;SDS011;27435;48.480;9.258;2023-08-06T08:24:28;0.35;;;0.10;;
41755;SDS011;27435;48.480;9.258;2023-08-06T08:26:55;0.43;;;0.10;;
41755;SDS011;27435;48.480;9.258;2023-08-06T08:29:21;0.38;;;0.10;;
41755;SDS011;27435;48.480;9.258;2023-08-06T08:31:48;0.98;;;0.10;;
41755;SDS011;27435;48.480;9.258;2023-08-06T08:34:22;0.37;;;0.10;;
41755;SDS011;27435;48.480;9.258;2023-08-06T08:36:47;1.95;;;0.15;;
41755;SDS011;27435;48.480;9.258;2023-08-06T08:39:14;1.08;;;0.13;;
41755;SDS011;27435;48.480;9.258;2023-08-06T08:41:40;0.52;;;0.20;;
41755;SDS011;27435;48.480;9.258;2023-08-06T08:44:08;0.30;;;0.10;;
41755;SDS011;27435;48.480;9.258;2023-08-06T08:46:35;0.13;;;0.05;;
41755;SDS011;27435;48.480;9.258;2023-08-06T08:49:03;0.60;;;0.40;;
41755;SDS011;27435;48.480;9.258;2023-08-06T08:51:29;0.77;;;0.20;;
41755;SDS011;27435;48.480;9.258;2023-08-06T08:53:55;0.17;;;0.05;;
41755;SDS011;27435;48.480;9.258;2023-08-06T08:56:22;0.65;;;0.17;;
41755;SDS011;27435;48.480;9.258;2023-08-06T08:58:48;0.63;;;0.20;;
41755;SDS011;27435;48.480;9.258;2023-08-06T09:01:14;0.20;;;0.15;;
41755;SDS011;27435;48.480;9.258;2023-08-06T09:03:40;0.47;;;0.20;;
41755;SDS011;27435;48.480;9.258;2023-08-06T09:06:08;0.43;;;0.17;;
41755;SDS011;27435;48.480;9.258;2023-08-06T09:08:37;0.50;;;0.10;;
41755;SDS011;27435;48.480;9.258;2023-08-06T09:11:27;0.50;;;0.17;;
41755;SDS011;27435;48.480;9.258;2023-08-06T09:13:54;0.10;;;0.10;;
41755;SDS011;27435;48.480;9.258;2023-08-06T09:16:21;0.00;;;0.00;;
41755;SDS011;27435;48.480;9.258;2023-08-06T09:18:46;1.13;;;0.10;;
41755;SDS011;27435;48.480;9.258;2023-08-06T09:21:15;0.10;;;0.10;;
41755;SDS011;27435;48.480;9.258;2023-08-06T09:23:41;1.85;;;0.10;;
41755;SDS011;27435;48.480;9.258;2023-08-06T09:26:07;0.00;;;0.00;;
41755;SDS011;27435;48.480;9.258;2023-08-06T09:28:37;0.30;;;0.00;;
41755;SDS011;27435;48.480;9.258;2023-08-06T09:31:04;0.65;;;0.10;;
41755;SDS011;27435;48.480;9.258;2023-08-06T09:33:29;0.17;;;0.10;;
41755;SDS011;27435;48.480;9.258;2023-08-06T09:35:55;0.20;;;0.00;;
41755;SDS011;27435;48.480;9.258;2023-08-06T09:38:21;0.20;;;0.10;;
41755;SDS011;27435;48.480;9.258;2023-08-06T09:40:46;0.10;;;0.03;;
41755;SDS011;27435;48.480;9.258;2023-08-06T09:43:12;0.68;;;0.03;;
41755;SDS011;27435;48.480;9.258;2023-08-06T09:45:38;0.50;;;0.10;;
41755;SDS011;27435;48.480;9.258;2023-08-06T09:48:07;0.70;;;0.03;;
41755;SDS011;27435;48.480;9.258;2023-08-06T09:50:37;0.10;;;0.00;;
41755;SDS011;27435;48.480;9.258;2023-08-06T09:53:04;0.32;;;0.10;;
41755;SDS011;27435;48.480;9.258;2023-08-06T09:55:32;0.00;;;0.00;;
41755;SDS011;27435;48.480;9.258;2023-08-06T09:57:58;0.30;;;0.10;;
41755;SDS011;27435;48.480;9.258;2023-08-06T10:00:24;0.10;;;0.00;;
41755;SDS011;27435;48.480;9.258;2023-08-06T10:02:51;0.10;;;0.10;;
41755;SDS011;27435;48.480;9.258;2023-08-06T10:05:21;0.28;;;0.10;;
41755;SDS011;27435;48.480;9.258;2023-08-06T10:07:47;0.20;;;0.10;;
41755;SDS011;27435;48.480;9.258;2023-08-06T10:10:15;0.28;;;0.10;;
41755;SDS011;27435;48.480;9.258;2023-08-06T10:12:45;0.55;;;0.30;;
41755;SDS011;27435;48.480;9.258;2023-08-06T10:15:15;0.63;;;0.20;;
41755;SDS011;27435;48.480;9.258;2023-08-06T10:17:45;0.60;;;0.15;;
41755;SDS011;27435;48.480;9.258;2023-08-06T10:20:15;0.50;;;0.20;;
41755;SDS011;27435;48.480;9.258;2023-08-06T10:22:44;0.57;;;0.10;;
41755;SDS011;27435;48.480;9.258;2023-08-06T10:25:10;1.30;;;0.10;;
41755;SDS011;27435;48.480;9.258;2023-08-06T10:30:36;1.05;;;0.10;;
41755;SDS011;27435;48.480;9.258;2023-08-06T10:33:06;0.55;;;0.25;;
41755;SDS011;27435;48.480;9.258;2023-08-06T10:35:35;0.25;;;0.10;;
41755;SDS011;27435;48.480;9.258;2023-08-06T10:38:20;0.30;;;0.10;;
41755;SDS011;27435;48.480;9.258;2023-08-06T10:43:28;0.47;;;0.08;;
41755;SDS011;27435;48.480;9.258;2023-08-06T10:45:55;0.50;;;0.10;;
41755;SDS011;27435;48.480;9.258;2023-08-06T10:48:40;0.05;;;0.05;;
41755;SDS011;27435;48.480;9.258;2023-08-06T10:51:10;0.52;;;0.25;;
41755;SDS011;27435;48.480;9.258;2023-08-06T10:53:37;0.10;;;0.10;;
41755;SDS011;27435;48.480;9.258;2023-08-06T10:56:12;2.10;;;0.30;;
41755;SDS011;27435;48.480;9.258;2023-08-06T10:58:42;3.63;;;0.32;;
41755;SDS011;27435;48.480;9.258;2023-08-06T11:01:10;0.47;;;0.10;;
41755;SDS011;27435;48.480;9.258;2023-08-06T11:03:36;1.00;;;0.00;;
41755;SDS011;27435;48.480;9.258;2023-08-06T11:06:02;1.15;;;0.30;;
41755;SDS011;27435;48.480;9.258;2023-08-06T11:08:32;1.15;;;0.30;;
41755;SDS011;27435;48.480;9.258;2023-08-06T11:11:09;0.00;;;0.00;;
41755;SDS011;27435;48.480;9.258;2023-08-06T11:13:37;0.22;;;0.10;;
41755;SDS011;27435;48.480;9.258;2023-08-06T11:16:07;0.30;;;0.17;;
41755;SDS011;27435;48.480;9.258;2023-08-06T11:18:33;0.52;;;0.20;;
41755;SDS011;27435;48.480;9.258;2023-08-06T11:20:59;0.55;;;0.20;;
41755;SDS011;27435;48.480;9.258;2023-08-06T11:23:28;0.32;;;0.17;;
41755;SDS011;27435;48.480;9.258;2023-08-06T11:25:55;0.73;;;0.20;;
41755;SDS011;27435;48.480;9.258;2023-08-06T11:28:21;1.50;;;0.47;;
41755;SDS011;27435;48.480;9.258;2023-08-06T11:30:48;0.47;;;0.13;;
41755;SDS011;27435;48.480;9.258;2023-08-06T11:33:14;0.30;;;0.10;;
41755;SDS011;27435;48.480;9.258;2023-08-06T11:35:46;0.38;;;0.30;;
41755;SDS011;27435;48.480;9.258;2023-08-06T11:38:13;0.68;;;0.20;;
41755;SDS011;27435;48.480;9.258;2023-08-06T11:40:38;0.55;;;0.20;;
41755;SDS011;27435;48.480;9.258;2023-08-06T11:43:05;0.98;;;0.30;;
41755;SDS011;27435;48.480;9.258;2023-08-06T11:45:31;2.90;;;0.60;;
41755;SDS011;27435;48.480;9.258;2023-08-06T11:47:59;1.10;;;0.40;;
41755;SDS011;27435;48.480;9.258;2023-08-06T11:50:25;0.88;;;0.30;;
41755;SDS011;27435;48.480;9.258;2023-08-06T11:52:58;0.20;;;0.17;;
41755;SDS011;27435;48.480;9.258;2023-08-06T11:55:25;0.47;;;0.20;;
41755;SDS011;27435;48.480;9.258;2023-08-06T11:57:55;0.10;;;0.10;;
41755;SDS011;27435;48.480;9.258;2023-08-06T12:00:25;0.45;;;0.20;;
41755;SDS011;27435;48.480;9.258;2023-08-06T12:02:52;0.10;;;0.10;;
41755;SDS011;27435;48.480;9.258;2023-08-06T12:07:57;0.20;;;0.10;;
41755;SDS011;27435;48.480;9.258;2023-08-06T12:10:24;0.10;;;0.10;;
41755;SDS011;27435;48.480;9.258;2023-08-06T12:12:51;0.80;;;0.40;;
41755;SDS011;27435;48.480;9.258;2023-08-06T12:15:17;0.77;;;0.30;;
41755;SDS011;27435;48.480;9.258;2023-08-06T12:17:43;0.55;;;0.30;;
41755;SDS011;27435;48.480;9.258;2023-08-06T12:20:09;0.20;;;0.10;;
41755;SDS011;27435;48.480;9.258;2023-08-06T12:22:35;9.45;;;0.63;;
41755;SDS011;27435;48.480;9.258;2023-08-06T12:25:03;0.75;;;0.20;;
41755;SDS011;27435;48.480;9.258;2023-08-06T12:27:36;0.40;;;0.30;;
41755;SDS011;27435;48.480;9.258;2023-08-06T12:30:03;0.80;;;0.28;;
41755;SDS011;27435;48.480;9.258;2023-08-06T12:32:30;3.55;;;1.42;;
41755;SDS011;27435;48.480;9.258;2023-08-06T12:34:55;1.23;;;0.57;;
41755;SDS011;27435;48.480;9.258;2023-08-06T12:37:21;1.30;;;0.50;;
41755;SDS011;27435;48.480;9.258;2023-08-06T12:39:48;1.73;;;0.60;;
41755;SDS011;27435;48.480;9.258;2023-08-06T12:42:13;1.27;;;0.55;;
41755;SDS011;27435;48.480;9.258;2023-08-06T12:44:39;1.33;;;0.50;;
41755;SDS011;27435;48.480;9.258;2023-08-06T12:47:05;1.33;;;0.52;;
41755;SDS011;27435;48.480;9.258;2023-08-06T12:49:31;2.03;;;0.73;;
41755;SDS011;27435;48.480;9.258;2023-08-06T12:51:58;1.55;;;0.60;;
41755;SDS011;27435;48.480;9.258;2023-08-06T12:54:24;0.40;;;0.22;;
41755;SDS011;27435;48.480;9.258;2023-08-06T12:56:50;1.38;;;0.57;;
41755;SDS011;27435;48.480;9.258;2023-08-06T12:59:16;3.30;;;1.90;;
41755;SDS011;27435;48.480;9.258;2023-08-06T13:01:43;1.50;;;0.40;;
41755;SDS011;27435;48.480;9.258;2023-08-06T13:04:09;1.40;;;0.40;;
41755;SDS011;27435;48.480;9.258;2023-08-06T13:06:35;3.88;;;0.47;;
41755;SDS011;27435;48.480;9.258;2023-08-06T13:09:08;1.83;;;0.60;;
41755;SDS011;27435;48.480;9.258;2023-08-06T13:11:35;2.55;;;0.63;;
41755;SDS011;27435;48.480;9.258;2023-08-06T13:14:05;1.25;;;0.57;;
41755;SDS011;27435;48.480;9.258;2023-08-06T13:16:38;1.52;;;0.52;;
41755;SDS011;27435;48.480;9.258;2023-08-06T13:19:05;0.93;;;0.43;;
41755;SDS011;27435;48.480;9.258;2023-08-06T13:21:33;0.77;;;0.38;;
41755;SDS011;27435;48.480;9.258;2023-08-06T13:24:03;6.65;;;1.15;;
41755;SDS011;27435;48.480;9.258;2023-08-06T13:26:29;1.50;;;0.50;;
41755;SDS011;27435;48.480;9.258;2023-08-06T13:28:56;3.75;;;0.50;;
41755;SDS011;27435;48.480;9.258;2023-08-06T13:31:23;2.53;;;0.50;;
41755;SDS011;27435;48.480;9.258;2023-08-06T13:33:48;2.95;;;0.40;;
41755;SDS011;27435;48.480;9.258;2023-08-06T13:36:15;0.50;;;0.30;;
41755;SDS011;27435;48.480;9.258;2023-08-06T13:38:41;0.70;;;0.32;;
41755;SDS011;27435;48.480;9.258;2023-08-06T13:41:07;0.80;;;0.40;;
41755;SDS011;27435;48.480;9.258;2023-08-06T13:43:33;0.50;;;0.30;;
41755;SDS011;27435;48.480;9.258;2023-08-06T13:45:58;0.52;;;0.22;;
41755;SDS011;27435;48.480;9.258;2023-08-06T13:48:24;0.52;;;0.35;;
41755;SDS011;27435;48.480;9.258;2023-08-06T13:50:50;0.82;;;0.22;;
41755;SDS011;27435;48.480;9.258;2023-08-06T13:53:15;1.13;;;0.30;;
41755;SDS011;27435;48.480;9.258;2023-08-06T13:55:41;0.77;;;0.38;;
41755;SDS011;27435;48.480;9.258;2023-08-06T13:58:07;0.50;;;0.30;;
41755;SDS011;27435;48.480;9.258;2023-08-06T14:00:33;0.85;;;0.30;;
41755;SDS011;27435;48.480;9.258;2023-08-06T14:03:00;0.43;;;0.25;;
41755;SDS011;27435;48.480;9.258;2023-08-06T14:05:26;0.50;;;0.30;;
41755;SDS011;27435;48.480;9.258;2023-08-06T14:07:52;0.30;;;0.20;;
41755;SDS011;27435;48.480;9.258;2023-08-06T14:10:17;0.88;;;0.40;;
41755;SDS011;27435;48.480;9.258;2023-08-06T14:12:43;0.75;;;0.32;;
41755;SDS011;27435;48.480;9.258;2023-08-06T14:15:09;0.65;;;0.30;;
41755;SDS011;27435;48.480;9.258;2023-08-06T14:17:35;1.63;;;0.45;;
41755;SDS011;27435;48.480;9.258;2023-08-06T14:20:01;0.57;;;0.20;;
41755;SDS011;27435;48.480;9.258;2023-08-06T14:22:28;0.22;;;0.20;;
41755;SDS011;27435;48.480;9.258;2023-08-06T14:24:55;0.73;;;0.10;;
41755;SDS011;27435;48.480;9.258;2023-08-06T14:27:21;0.70;;;0.30;;
41755;SDS011;27435;48.480;9.258;2023-08-06T14:29:47;0.40;;;0.10;;
41755;SDS011;27435;48.480;9.258;2023-08-06T14:32:12;0.30;;;0.10;;
41755;SDS011;27435;48.480;9.258;2023-08-06T14:34:38;0.52;;;0.20;;
41755;SDS011;27435;48.480;9.258;2023-08-06T14:37:03;0.40;;;0.20;;
41755;SDS011;27435;48.480;9.258;2023-08-06T14:39:29;1.38;;;0.40;;
41755;SDS011;27435;48.480;9.258;2023-08-06T14:41:55;1.08;;;0.38;;
41755;SDS011;27435;48.480;9.258;2023-08-06T14:44:21;0.50;;;0.20;;
41755;SDS011;27435;48.480;9.258;2023-08-06T14:46:46;1.40;;;0.28;;
41755;SDS011;27435;48.480;9.258;2023-08-06T14:49:12;1.15;;;0.32;;
41755;SDS011;27435;48.480;9.258;2023-08-06T14:51:38;0.28;;;0.20;;
41755;SDS011;27435;48.480;9.258;2023-08-06T14:54:03;1.00;;;0.28;;
41755;SDS011;27435;48.480;9.258;2023-08-06T14:56:29;0.30;;;0.20;;